createdAt,value
2022-08-16T04:00:07.906Z,99566.89
2022-08-16T04:02:44.240Z,99572.66
2022-08-16T04:05:18.520Z,99572.30
2022-08-16T04:07:52.266Z,99577.39
2022-08-16T04:10:37.353Z,99579.24
2022-08-16T04:13:20.047Z,99583.49
2022-08-16T04:15:53.264Z,99578.27
2022-08-16T04:18:27.052Z,99576.39
2022-08-16T04:20:59.742Z,99575.39
2022-08-16T04:23:29.943Z,99578.65
2022-08-16T04:26:02.128Z,99575.26
2022-08-16T04:28:53.437Z,99581.04
2022-08-16T04:31:25.279Z,99580.84
2022-08-16T04:34:01.353Z,99584.59
2022-08-16T04:36:30.491Z,99584.95
2022-08-16T04:39:02.105Z,99584.25
2022-08-16T04:41:37.403Z,99584.48
2022-08-16T04:44:30.977Z,99583.59
2022-08-16T04:47:03.177Z,99582.99
2022-08-16T04:49:50.014Z,99582.29
2022-08-16T04:52:32.735Z,99585.24
2022-08-16T04:55:15.943Z,99582.98
2022-08-16T04:57:52.589Z,99583.13
2022-08-16T05:00:34.375Z,99583.03
2022-08-16T05:03:22.590Z,99583.94
2022-08-16T05:05:59.429Z,99580.80
2022-08-16T05:08:34.467Z,99585.15
2022-08-16T05:11:31.873Z,99580.89
2022-08-16T05:14:07.211Z,99583.90
2022-08-16T05:16:39.179Z,99587.84
2022-08-16T05:19:13.386Z,99590.19
2022-08-16T05:22:04.071Z,99594.19
2022-08-16T05:24:36.873Z,99595.91
2022-08-16T05:27:11.426Z,99593.64
2022-08-16T05:29:57.458Z,99597.96
2022-08-16T05:32:32.850Z,99597.75
2022-08-16T05:35:10.809Z,99595.00
2022-08-16T05:37:46.150Z,99600.07
2022-08-16T05:40:16.544Z,99608.67
2022-08-16T05:42:49.358Z,99610.50
2022-08-16T05:45:21.452Z,99616.09
2022-08-16T05:47:59.947Z,99616.71
2022-08-16T05:50:52.938Z,99617.36
2022-08-16T05:53:24.762Z,99610.88
2022-08-16T05:56:19.509Z,99613.29
2022-08-16T05:58:50.300Z,99608.09
2022-08-16T06:01:19.961Z,99602.86
2022-08-16T06:03:55.875Z,99599.84
2022-08-16T06:06:36.313Z,99601.71
2022-08-16T06:09:12.586Z,99602.40
2022-08-16T06:11:44.603Z,99602.59
2022-08-16T06:14:14.820Z,99598.13
2022-08-16T06:16:50.798Z,99602.67
2022-08-16T06:19:22.348Z,99603.09
2022-08-16T06:22:03.206Z,99606.13
2022-08-16T06:24:53.704Z,99607.73
2022-08-16T06:27:26.135Z,99607.88
2022-08-16T06:30:13.969Z,99611.27
2022-08-16T06:32:51.283Z,99614.27
2022-08-16T06:35:21.058Z,99619.70
2022-08-16T06:37:53.526Z,99627.02
2022-08-16T06:40:33.698Z,99625.06
2022-08-16T06:43:03.990Z,99623.46
2022-08-16T06:45:49.470Z,99622.28
2022-08-16T06:48:32.210Z,99619.52
2022-08-16T06:51:05.595Z,99623.94
2022-08-16T06:53:36.932Z,99617.66
2022-08-16T06:56:14.632Z,99620.38
2022-08-16T06:59:09.090Z,99624.39
2022-08-16T07:01:54.151Z,99625.71
2022-08-16T07:04:32.427Z,99624.12
2022-08-16T07:07:09.694Z,99625.17
2022-08-16T07:09:40.535Z,99622.97
2022-08-16T07:12:11.396Z,99625.14
2022-08-16T07:14:48.530Z,99631.69
2022-08-16T07:17:22.022Z,99628.63
2022-08-16T07:20:03.907Z,99630.88
2022-08-16T07:22:58.954Z,99627.27
2022-08-16T07:25:44.881Z,99629.30
2022-08-16T07:28:20.940Z,99624.34
2022-08-16T07:30:54.785Z,99621.58
2022-08-16T07:33:53.501Z,99625.05
2022-08-16T07:36:31.889Z,99623.44
2022-08-16T07:39:01.511Z,99624.72
2022-08-16T07:41:36.867Z,99625.33
2022-08-16T07:44:16.466Z,99626.57
2022-08-16T07:46:55.433Z,99629.73
2022-08-16T07:49:26.644Z,99630.84
2022-08-16T07:52:20.147Z,99630.30
2022-08-16T07:54:53.471Z,99633.70
2022-08-16T07:57:23.984Z,99637.16
2022-08-16T07:59:57.012Z,99639.01
2022-08-16T08:02:29.006Z,99637.88
2022-08-16T08:05:03.407Z,99641.59
2022-08-16T08:07:33.182Z,99643.63
2022-08-16T08:10:11.147Z,99641.59
2022-08-16T08:12:43.870Z,99635.54
2022-08-16T08:15:15.176Z,99638.81
2022-08-16T08:17:58.734Z,99637.00
2022-08-16T08:20:59.388Z,99641.30
2022-08-16T08:23:30.665Z,99639.33
2022-08-16T08:26:01.427Z,99639.23
2022-08-16T08:28:32.179Z,99643.69
2022-08-16T08:31:05.844Z,99638.95
2022-08-16T08:33:43.834Z,99641.50
2022-08-16T08:36:24.743Z,99642.46
2022-08-16T08:39:12.753Z,99643.88
2022-08-16T08:41:46.459Z,99643.85
2022-08-16T08:44:28.969Z,99644.88
2022-08-16T08:47:11.945Z,99649.23
2022-08-16T08:49:50.631Z,99648.17
2022-08-16T08:52:34.655Z,99644.82
2022-08-16T08:55:23.576Z,99644.04
2022-08-16T08:57:52.904Z,99642.33
2022-08-16T09:00:51.338Z,99641.30
2022-08-16T09:03:23.558Z,99637.77
2022-08-16T09:05:58.069Z,99639.46
2022-08-16T09:08:28.968Z,99641.05
2022-08-16T09:11:03.661Z,99638.41
2022-08-16T09:13:38.174Z,99638.34
2022-08-16T09:17:01.680Z,99636.33
2022-08-16T09:21:42.054Z,99639.09
2022-08-16T09:24:12.394Z,99642.02
2022-08-16T09:27:03.516Z,99643.00
2022-08-16T09:29:45.034Z,99639.00
2022-08-16T09:32:28.465Z,99638.87
2022-08-16T09:35:00.016Z,99638.34
2022-08-16T09:37:36.558Z,99640.75
2022-08-16T09:40:33.197Z,99640.59
2022-08-16T09:42:59.737Z,99639.67
2022-08-16T09:45:29.325Z,99641.14
2022-08-16T09:47:59.687Z,99637.09
2022-08-16T09:50:38.218Z,99636.54
2022-08-16T09:53:15.127Z,99635.86
2022-08-16T09:55:50.149Z,99638.05
2022-08-16T09:58:37.806Z,99639.52
2022-08-16T10:01:11.172Z,99637.98
2022-08-16T10:04:01.765Z,99642.27
2022-08-16T10:06:33.273Z,99637.41
2022-08-16T10:09:08.362Z,99637.08
2022-08-16T10:12:11.052Z,99640.64
2022-08-16T10:14:46.796Z,99644.50
2022-08-16T10:17:15.919Z,99642.87
2022-08-16T10:19:47.533Z,99643.41
2022-08-16T10:22:22.969Z,99647.14
2022-08-16T10:24:55.661Z,99645.22
2022-08-16T10:27:47.111Z,99640.36
2022-08-16T10:30:25.782Z,99639.02
2022-08-16T10:32:58.482Z,99637.46
2022-08-16T10:35:32.536Z,99643.54
2022-08-16T10:38:03.021Z,99636.29
2022-08-16T10:40:36.752Z,99637.19
2022-08-16T10:43:08.232Z,99640.12
2022-08-16T10:45:59.926Z,99638.98
2022-08-16T10:48:31.326Z,99633.21
2022-08-16T10:51:00.209Z,99628.05
2022-08-16T10:53:33.974Z,99631.50
2022-08-16T10:56:44.279Z,99627.13
2022-08-16T10:59:32.793Z,99628.05
2022-08-16T11:05:09.675Z,99629.38
2022-08-16T11:07:51.702Z,99633.84
2022-08-16T11:16:25.402Z,99634.17
2022-08-16T11:19:04.531Z,99639.78
2022-08-16T11:22:22.472Z,99639.35
2022-08-16T11:24:41.654Z,99641.20
2022-08-16T11:27:19.860Z,99641.27
2022-08-16T11:29:52.897Z,99639.23
2022-08-16T11:32:31.833Z,99634.26
2022-08-16T11:35:13.593Z,99636.94
2022-08-16T11:38:06.013Z,99635.35
2022-08-16T11:40:52.155Z,99635.09
2022-08-16T11:43:26.759Z,99632.60
2022-08-16T11:46:07.781Z,99630.36
2022-08-16T11:48:52.186Z,99627.38
2022-08-16T11:51:22.139Z,99626.59
2022-08-16T11:53:51.799Z,99625.53
2022-08-16T11:56:37.653Z,99634.06
2022-08-16T11:59:12.854Z,99633.83
2022-08-16T12:01:55.031Z,99629.49
2022-08-16T12:04:26.401Z,99622.52
2022-08-16T12:06:55.990Z,99620.44
2022-08-16T12:09:29.398Z,99621.81
2022-08-16T12:12:03.071Z,99620.52
2022-08-16T12:14:35.413Z,99618.65
2022-08-16T12:17:08.319Z,99619.98
2022-08-16T12:19:38.531Z,99620.86
2022-08-16T12:22:19.471Z,99618.64
2022-08-16T12:24:51.984Z,99618.67
2022-08-16T12:27:24.427Z,99614.52
2022-08-16T12:29:54.386Z,99611.08
2022-08-16T12:32:38.117Z,99614.55
2022-08-16T12:35:15.964Z,99608.73
2022-08-16T12:37:47.300Z,99606.62
2022-08-16T12:40:25.194Z,99605.19
2022-08-16T12:43:00.712Z,99610.52
2022-08-16T12:45:32.420Z,99608.16
2022-08-16T12:48:34.534Z,99609.59
2022-08-16T12:51:13.685Z,99605.92
2022-08-16T12:53:51.884Z,99606.48
2022-08-16T12:56:25.421Z,99600.39
2022-08-16T12:58:57.568Z,99600.23
2022-08-16T13:01:32.272Z,99596.30
2022-08-16T13:04:11.928Z,99594.98
2022-08-16T13:06:52.098Z,99589.67
2022-08-16T13:09:26.647Z,99583.56
2022-08-16T13:12:16.827Z,99581.37
2022-08-16T13:14:47.946Z,99582.47
2022-08-16T13:17:26.489Z,99585.45
2022-08-16T13:20:11.015Z,99582.60
2022-08-16T13:22:52.673Z,99580.38
2022-08-16T13:25:25.627Z,99580.77
2022-08-16T13:28:16.926Z,99582.98
2022-08-16T13:30:52.973Z,99578.70
2022-08-16T13:33:37.840Z,99580.48
2022-08-16T13:36:17.097Z,99576.20
2022-08-16T13:39:00.489Z,99568.84
2022-08-16T13:41:30.146Z,99570.83
2022-08-16T13:44:01.036Z,99566.70
2022-08-16T13:46:34.240Z,99560.52
2022-08-16T13:49:05.693Z,99557.81
2022-08-16T13:51:35.015Z,99557.10
2022-08-16T13:54:09.180Z,99552.12
2022-08-16T13:56:41.615Z,99555.33
2022-08-16T13:59:20.271Z,99552.30
2022-08-16T14:01:59.812Z,99554.61
2022-08-16T14:04:40.998Z,99548.91
2022-08-16T14:07:19.922Z,99551.09
2022-08-16T14:09:55.308Z,99549.02
2022-08-16T14:12:31.195Z,99556.10
2022-08-16T14:15:03.111Z,99560.27
2022-08-16T14:18:17.059Z,99558.73
2022-08-16T14:20:21.300Z,99556.83
2022-08-16T14:22:52.555Z,99557.53
2022-08-16T14:25:27.030Z,99554.28
2022-08-16T14:27:56.436Z,99555.06
2022-08-16T14:30:26.820Z,99553.52
2022-08-16T14:32:57.129Z,99553.48
2022-08-16T14:35:48.355Z,99549.12
2022-08-16T14:38:23.655Z,99556.81
2022-08-16T14:40:55.571Z,99560.37
2022-08-16T14:43:29.781Z,99570.79
2022-08-16T14:46:00.786Z,99571.89
2022-08-16T14:48:31.756Z,99569.63
2022-08-16T14:51:02.908Z,99565.73
2022-08-16T14:53:32.851Z,99568.13
2022-08-16T14:56:02.342Z,99572.80
2022-08-16T14:58:36.757Z,99575.37
2022-08-16T15:01:09.917Z,99580.41
2022-08-16T15:03:42.326Z,99589.30
2022-08-16T15:06:16.286Z,99594.15
2022-08-16T15:08:46.035Z,99597.25
2022-08-16T15:11:15.514Z,99592.69
2022-08-16T15:13:47.425Z,99598.27
2022-08-16T15:16:17.166Z,99599.80
2022-08-16T15:18:47.328Z,99603.40
2022-08-16T15:21:16.891Z,99604.24
2022-08-16T15:23:45.761Z,99606.97
2022-08-16T15:26:29.681Z,99605.51
2022-08-16T15:29:05.939Z,99599.77
2022-08-16T15:31:38.324Z,99602.71
2022-08-16T15:34:13.083Z,99606.85
2022-08-16T15:36:50.768Z,99611.31
2022-08-16T15:39:29.797Z,99614.94
2022-08-16T15:42:15.719Z,99619.17
2022-08-16T15:44:58.612Z,99619.96
2022-08-16T15:47:34.247Z,99619.65
2022-08-16T15:50:06.610Z,99623.32
2022-08-16T15:52:38.896Z,99627.95
2022-08-16T15:55:23.772Z,99635.34
2022-08-16T15:57:59.881Z,99636.04
2022-08-16T16:00:29.459Z,99641.48
2022-08-16T16:03:15.613Z,99644.57
2022-08-16T16:05:48.355Z,99651.01
2022-08-16T16:08:23.986Z,99648.32
2022-08-16T16:11:04.556Z,99649.55
2022-08-16T16:13:35.621Z,99652.84
2022-08-16T16:16:16.571Z,99653.86
2022-08-16T16:18:48.748Z,99653.48
2022-08-16T16:21:20.321Z,99655.81
2022-08-16T16:23:54.005Z,99655.94
2022-08-16T16:26:24.820Z,99666.59
2022-08-16T16:29:07.587Z,99664.30
2022-08-16T16:31:44.259Z,99660.33
2022-08-16T16:34:33.491Z,99661.20
2022-08-16T16:37:05.055Z,99662.83
2022-08-16T16:39:38.728Z,99654.23
2022-08-16T16:42:10.994Z,99652.20
2022-08-16T16:45:02.161Z,99657.00
2022-08-16T16:47:48.334Z,99657.56
2022-08-16T16:50:18.425Z,99660.30
2022-08-16T16:52:48.338Z,99661.98
2022-08-16T16:55:17.161Z,99667.55
2022-08-16T16:58:04.582Z,99671.23
2022-08-16T17:00:42.816Z,99669.73
2022-08-16T17:03:22.218Z,99677.02
2022-08-16T17:05:57.359Z,99680.03
2022-08-16T17:08:32.729Z,99690.96
2022-08-16T17:11:03.006Z,99698.61
2022-08-16T17:13:33.371Z,99701.45
2022-08-16T17:16:03.289Z,99698.88
2022-08-16T17:19:14.457Z,99695.50
2022-08-16T17:21:25.100Z,99692.69
2022-08-16T17:23:58.808Z,99689.81
2022-08-16T17:26:31.013Z,99690.23
2022-08-16T17:29:02.321Z,99692.91
2022-08-16T17:31:41.110Z,99688.31
2022-08-16T17:34:28.737Z,99688.33
2022-08-16T17:37:08.140Z,99680.83
2022-08-16T17:40:00.130Z,99675.56
2022-08-16T17:42:26.514Z,99671.31
2022-08-16T17:44:55.183Z,99673.20
2022-08-16T17:47:24.355Z,99670.72
2022-08-16T17:50:13.506Z,99669.13
2022-08-16T17:52:55.462Z,99665.43
2022-08-16T17:55:31.308Z,99673.23
2022-08-16T17:58:01.079Z,99675.77
2022-08-16T18:00:42.031Z,99676.57
2022-08-16T18:04:08.202Z,99685.27
2022-08-16T18:06:32.609Z,99685.63
2022-08-16T18:09:03.475Z,99686.80
2022-08-16T18:11:41.345Z,99690.29
2022-08-16T18:14:13.673Z,99693.17
2022-08-16T18:16:48.621Z,99693.70
2022-08-16T18:19:17.908Z,99694.36
2022-08-16T18:22:05.974Z,99699.11
2022-08-16T18:24:35.444Z,99697.48
2022-08-16T18:27:26.887Z,99699.75
2022-08-16T18:29:54.914Z,99706.34
2022-08-16T18:32:24.796Z,99715.02
2022-08-16T18:34:55.058Z,99718.84
2022-08-16T18:37:24.953Z,99721.30
2022-08-16T18:39:53.741Z,99725.46
2022-08-16T18:42:26.531Z,99728.65
2022-08-16T18:44:55.522Z,99730.77
2022-08-16T18:47:24.941Z,99736.23
2022-08-16T18:49:53.371Z,99737.27
2022-08-16T18:52:25.772Z,99736.90
2022-08-16T18:55:01.586Z,99735.83
2022-08-16T18:57:35.523Z,99738.17
2022-08-16T19:00:11.653Z,99738.11
2022-08-16T19:02:58.072Z,99744.70
2022-08-16T19:05:30.132Z,99745.08
2022-08-16T19:07:59.281Z,99748.34
2022-08-16T19:10:30.173Z,99747.90
2022-08-16T19:13:00.077Z,99746.41
2022-08-16T19:15:29.884Z,99747.60
2022-08-16T19:17:58.784Z,99745.29
2022-08-16T19:20:29.289Z,99746.98
2022-08-16T19:23:05.601Z,99746.91
2022-08-16T19:25:47.566Z,99748.88
2022-08-16T19:28:51.520Z,99747.31
2022-08-16T19:31:27.577Z,99742.14
2022-08-16T19:33:57.960Z,99740.17
2022-08-16T19:36:35.219Z,99743.05
2022-08-16T19:39:09.512Z,99742.45
2022-08-16T19:41:44.718Z,99745.73
2022-08-16T19:44:13.815Z,99745.17
2022-08-16T19:46:45.567Z,99744.16
2022-08-16T19:49:16.110Z,99739.41
2022-08-16T19:51:48.167Z,99739.15
2022-08-16T19:54:18.297Z,99741.35
2022-08-16T19:56:47.741Z,99742.14
2022-08-16T19:59:20.448Z,99743.04
2022-08-16T20:01:53.007Z,99751.10
2022-08-16T20:04:22.929Z,99750.08
2022-08-16T20:06:53.582Z,99749.31
2022-08-16T20:09:23.702Z,99748.17
2022-08-16T20:11:54.665Z,99745.94
2022-08-16T20:14:26.517Z,99744.12
2022-08-16T20:16:58.518Z,99742.00
2022-08-16T20:19:29.664Z,99744.73
2022-08-16T20:22:51.733Z,99751.13
2022-08-16T20:25:27.985Z,99753.11
2022-08-16T20:27:59.301Z,99755.04
2022-08-16T20:30:28.407Z,99758.08
2022-08-16T20:32:57.929Z,99757.96
2022-08-16T20:35:29.017Z,99753.45
2022-08-16T20:37:57.978Z,99752.44
2022-08-16T20:40:35.241Z,99756.95
2022-08-16T20:43:12.678Z,99754.58
2022-08-16T20:45:46.076Z,99755.17
2022-08-16T20:48:15.880Z,99750.61
2022-08-16T20:50:45.632Z,99750.34
2022-08-16T20:53:15.046Z,99752.80
2022-08-16T20:55:45.356Z,99748.21
2022-08-16T20:58:16.635Z,99750.60
2022-08-16T21:00:48.209Z,99749.33
2022-08-16T21:03:17.590Z,99747.55
2022-08-16T21:05:47.357Z,99749.45
2022-08-16T21:08:50.756Z,99748.23
2022-08-16T21:11:10.729Z,99751.44
2022-08-16T21:13:42.914Z,99758.23
2022-08-16T21:16:12.566Z,99755.70
2022-08-16T21:18:41.678Z,99755.20
2022-08-16T21:21:12.801Z,99762.16
2022-08-16T21:23:42.107Z,99760.61
2022-08-16T21:26:11.772Z,99760.55
2022-08-16T21:28:47.760Z,99766.55
2022-08-16T21:31:18.034Z,99766.55
2022-08-16T21:33:55.151Z,99770.83
2022-08-16T21:36:34.841Z,99773.31
2022-08-16T21:39:08.641Z,99773.36
2022-08-16T21:41:42.213Z,99773.44
2022-08-16T21:44:11.776Z,99771.29
2022-08-16T21:46:40.645Z,99766.06
2022-08-16T21:49:09.259Z,99761.80
2022-08-16T21:51:38.341Z,99756.04
2022-08-16T21:54:07.738Z,99748.65
2022-08-16T21:56:37.114Z,99750.79
2022-08-16T21:59:11.494Z,99757.35
2022-08-16T22:01:42.848Z,99757.39
2022-08-16T22:04:37.785Z,99763.57
2022-08-16T22:07:04.451Z,99761.31
2022-08-16T22:09:33.844Z,99766.70
2022-08-16T22:12:03.582Z,99767.63
2022-08-16T22:14:33.058Z,99763.97
2022-08-16T22:17:02.946Z,99762.49
2022-08-16T22:19:32.379Z,99760.74
2022-08-16T22:22:02.171Z,99762.06
2022-08-16T22:24:31.382Z,99763.33
2022-08-16T22:27:01.209Z,99766.96
2022-08-16T22:29:30.461Z,99766.20
2022-08-16T22:31:59.691Z,99759.84
2022-08-16T22:34:28.025Z,99764.69
2022-08-16T22:36:58.242Z,99764.37
2022-08-16T22:39:27.958Z,99769.68
2022-08-16T22:41:59.515Z,99767.86
2022-08-16T22:44:29.372Z,99767.76
2022-08-16T22:46:58.924Z,99766.85
2022-08-16T22:49:29.765Z,99764.16
2022-08-16T22:52:10.001Z,99760.73
2022-08-16T22:54:48.585Z,99762.97
2022-08-16T22:57:18.987Z,99759.47
2022-08-16T22:59:48.227Z,99755.23
